El Paso (ELP/KELP)

Map

Information

Location
El Paso, TX
Local Time
23:33 / 11:33 pm
GMT Time
06:33 / 6:33 am
Gates
Unassigned
No FAA reported delays
METAR KELP 220551Z 27012KT 10SM CLR 19/M02 A3017 RMK AO2 SLP168 T01941017 10233 20172 58003
TAF KELP 220537Z 2206/2306 18005KT P6SM SKC FM221800 24008KT P6SM SKC
  • No charts available